createdAt,value
2023-04-21T00:00:55.839Z,5.35
2023-04-21T00:03:28.186Z,5.88
2023-04-21T00:06:01.540Z,5.95
2023-04-21T00:08:28.408Z,6.03
2023-04-21T00:10:55.563Z,6.60
2023-04-21T00:13:23.015Z,6.95
2023-04-21T00:15:50.463Z,6.45
2023-04-21T00:18:20.375Z,5.72
2023-04-21T00:20:47.203Z,6.32
2023-04-21T00:23:14.287Z,5.95
2023-04-21T00:25:41.187Z,6.05
2023-04-21T00:28:08.457Z,7.20
2023-04-21T00:30:37.741Z,6.75
2023-04-21T00:33:04.933Z,7.05
2023-04-21T00:35:32.174Z,6.68
2023-04-21T00:37:58.987Z,6.20
2023-04-21T00:40:25.863Z,6.95
2023-04-21T00:42:53.062Z,6.80
2023-04-21T00:45:19.962Z,6.47
2023-04-21T00:47:46.859Z,6.88
2023-04-21T00:50:13.847Z,6.85
2023-04-21T00:52:42.008Z,6.10
2023-04-21T00:55:09.327Z,6.13
2023-04-21T00:57:37.964Z,5.72
2023-04-21T01:00:11.640Z,6.57
2023-04-21T01:02:40.202Z,7.40
2023-04-21T01:05:09.136Z,7.47
2023-04-21T01:07:38.984Z,6.88
2023-04-21T01:10:09.091Z,6.68
2023-04-21T01:12:46.188Z,6.63
2023-04-21T01:15:16.153Z,6.18
2023-04-21T01:17:43.742Z,7.18
2023-04-21T01:20:15.054Z,7.13
2023-04-21T01:22:44.588Z,6.80
2023-04-21T01:25:11.583Z,6.05
2023-04-21T01:27:38.890Z,6.28
2023-04-21T01:30:10.104Z,6.63
2023-04-21T01:32:37.249Z,6.97
2023-04-21T01:35:04.486Z,6.55
2023-04-21T01:37:33.002Z,6.85
2023-04-21T01:40:04.771Z,6.95
2023-04-21T01:42:35.060Z,6.30
2023-04-21T01:45:02.802Z,7.35
2023-04-21T01:47:30.976Z,6.78
2023-04-21T01:49:57.881Z,6.47
2023-04-21T01:52:25.258Z,6.88
2023-04-21T01:54:54.227Z,6.45
2023-04-21T01:57:21.134Z,6.75
2023-04-21T01:59:49.596Z,6.35
2023-04-21T02:02:16.728Z,6.32
2023-04-21T02:04:44.157Z,6.30
2023-04-21T02:07:11.000Z,5.47
2023-04-21T02:09:40.931Z,5.80
2023-04-21T02:12:08.522Z,5.60
2023-04-21T02:14:36.807Z,6.13
2023-04-21T02:17:03.925Z,5.72
2023-04-21T02:19:31.295Z,6.18
2023-04-21T02:21:58.089Z,5.78
2023-04-21T02:24:24.937Z,6.03
2023-04-21T02:26:53.724Z,5.40
2023-04-21T02:29:20.699Z,5.80
2023-04-21T02:32:00.877Z,5.30
2023-04-21T02:34:32.806Z,5.70
2023-04-21T02:37:00.691Z,5.10
2023-04-21T02:39:27.492Z,5.60
2023-04-21T02:41:54.529Z,5.93
2023-04-21T02:44:21.342Z,5.32
2023-04-21T02:46:48.603Z,5.38
2023-04-21T02:49:15.639Z,5.25
2023-04-21T02:51:42.453Z,5.45
2023-04-21T02:54:09.304Z,5.63
2023-04-21T02:56:36.537Z,5.85
2023-04-21T02:59:03.768Z,5.28
2023-04-21T03:01:30.590Z,5.68
2023-04-21T03:03:57.493Z,5.43
2023-04-21T03:06:24.882Z,5.30
2023-04-21T03:08:52.285Z,5.28
2023-04-21T03:11:19.555Z,5.80
2023-04-21T03:13:46.356Z,5.05
2023-04-21T03:16:13.701Z,5.60
2023-04-21T03:18:40.991Z,5.28
2023-04-21T03:21:07.863Z,5.30
2023-04-21T03:23:34.778Z,5.70
2023-04-21T03:26:02.017Z,5.53
2023-04-21T03:28:29.355Z,4.60
2023-04-21T03:30:56.568Z,5.28
2023-04-21T03:33:23.399Z,5.25
2023-04-21T03:35:50.746Z,5.57
2023-04-21T03:38:17.557Z,5.32
2023-04-21T03:40:46.428Z,4.78
2023-04-21T03:43:13.731Z,4.47
2023-04-21T03:45:41.153Z,5.07
2023-04-21T03:48:08.571Z,4.30
2023-04-21T03:50:35.369Z,4.82
2023-04-21T03:53:02.605Z,4.68
2023-04-21T03:55:29.806Z,5.38
2023-04-21T03:57:57.015Z,4.90
2023-04-21T04:00:24.403Z,5.10
2023-04-21T04:02:51.514Z,5.70
2023-04-21T04:05:18.797Z,5.50
2023-04-21T04:07:45.725Z,5.05
2023-04-21T04:10:12.543Z,4.65
2023-04-21T04:12:39.424Z,4.82
2023-04-21T04:15:07.881Z,4.88
2023-04-21T04:17:34.746Z,4.78
2023-04-21T04:20:04.573Z,5.38
2023-04-21T04:22:31.868Z,5.15
2023-04-21T04:24:59.774Z,5.18
2023-04-21T04:27:30.788Z,5.05
2023-04-21T04:29:57.797Z,4.88
2023-04-21T04:32:28.709Z,4.75
2023-04-21T04:34:56.177Z,5.05
2023-04-21T04:37:22.985Z,4.70
2023-04-21T04:39:53.361Z,5.57
2023-04-21T04:42:20.452Z,4.65
2023-04-21T04:44:47.552Z,4.47
2023-04-21T04:47:14.328Z,4.82
2023-04-21T04:49:41.159Z,4.68
2023-04-21T04:52:08.218Z,4.15
2023-04-21T04:54:35.068Z,4.93
2023-04-21T04:57:02.507Z,4.60
2023-04-21T04:59:30.974Z,4.28
2023-04-21T05:01:57.817Z,4.95
2023-04-21T05:04:25.032Z,4.43
2023-04-21T05:06:52.209Z,4.60
2023-04-21T05:09:18.983Z,4.20
2023-04-21T05:11:46.193Z,4.63
2023-04-21T05:14:13.762Z,4.50
2023-04-21T05:16:40.638Z,4.35
2023-04-21T05:19:07.461Z,4.57
2023-04-21T05:21:34.696Z,4.65
2023-04-21T05:24:01.973Z,4.50
2023-04-21T05:26:29.906Z,4.28
2023-04-21T05:28:57.351Z,4.25
2023-04-21T05:31:24.847Z,4.38
2023-04-21T05:33:52.220Z,4.82
2023-04-21T05:36:20.442Z,4.53
2023-04-21T05:38:47.769Z,4.90
2023-04-21T05:41:15.205Z,4.35
2023-04-21T05:43:42.472Z,4.05
2023-04-21T05:46:11.047Z,4.20
2023-04-21T05:48:37.991Z,4.55
2023-04-21T05:51:17.752Z,3.72
2023-04-21T05:53:45.832Z,4.13
2023-04-21T05:56:13.988Z,4.57
2023-04-21T05:58:41.908Z,4.28
2023-04-21T06:01:09.405Z,4.43
2023-04-21T06:03:36.788Z,4.50
2023-04-21T06:06:05.865Z,4.30
2023-04-21T06:08:33.192Z,4.25
2023-04-21T06:11:00.124Z,4.78
2023-04-21T06:13:27.822Z,4.45
2023-04-21T06:15:55.366Z,4.72
2023-04-21T06:18:24.034Z,4.90
2023-04-21T06:20:51.750Z,4.90
2023-04-21T06:23:18.996Z,4.20
2023-04-21T06:25:46.311Z,5.22
2023-04-21T06:28:13.601Z,5.03
2023-04-21T06:30:40.580Z,4.53
2023-04-21T06:33:07.888Z,4.75
2023-04-21T06:35:34.735Z,5.03
2023-04-21T06:38:02.573Z,5.00
2023-04-21T06:40:29.400Z,4.93
2023-04-21T06:42:56.722Z,5.47
2023-04-21T06:45:24.030Z,5.05
2023-04-21T06:47:50.865Z,4.95
2023-04-21T06:50:18.180Z,5.22
2023-04-21T06:52:44.955Z,4.50
2023-04-21T06:55:12.189Z,5.30
2023-04-21T06:57:39.085Z,5.55
2023-04-21T07:00:06.745Z,5.38
2023-04-21T07:02:33.710Z,5.75
2023-04-21T07:05:00.708Z,4.28
2023-04-21T07:07:27.673Z,5.28
2023-04-21T07:09:54.451Z,5.18
2023-04-21T07:12:21.911Z,5.10
2023-04-21T07:14:48.745Z,5.25
2023-04-21T07:17:16.232Z,5.65
2023-04-21T07:19:43.044Z,6.05
2023-04-21T07:22:10.516Z,4.75
2023-04-21T07:24:37.833Z,5.00
2023-04-21T07:27:04.782Z,5.18
2023-04-21T07:29:31.879Z,5.10
2023-04-21T07:31:58.875Z,4.75
2023-04-21T07:34:25.777Z,4.68
2023-04-21T07:36:52.776Z,4.93
2023-04-21T07:39:19.786Z,5.07
2023-04-21T07:41:46.684Z,4.45
2023-04-21T07:44:13.572Z,4.80
2023-04-21T07:46:40.404Z,4.43
2023-04-21T07:49:07.300Z,5.28
2023-04-21T07:51:34.203Z,5.00
2023-04-21T07:54:01.552Z,4.53
2023-04-21T07:56:28.642Z,4.15
2023-04-21T07:58:55.510Z,4.45
2023-04-21T08:01:23.769Z,5.10
2023-04-21T08:03:50.648Z,4.72
2023-04-21T08:06:17.865Z,5.50
2023-04-21T08:08:44.759Z,5.47
2023-04-21T08:11:11.574Z,5.07
2023-04-21T08:13:38.425Z,5.05
2023-04-21T08:16:05.561Z,5.30
2023-04-21T08:18:32.551Z,5.22
2023-04-21T08:20:59.439Z,5.22
2023-04-21T08:23:26.384Z,5.47
2023-04-21T08:25:53.263Z,5.78
2023-04-21T08:28:20.452Z,5.47
2023-04-21T08:30:47.324Z,6.13
2023-04-21T08:33:14.243Z,5.97
2023-04-21T08:35:55.074Z,5.65
2023-04-21T08:38:28.638Z,5.55
2023-04-21T08:40:58.748Z,6.22
2023-04-21T08:43:26.116Z,6.78
2023-04-21T08:45:56.272Z,6.55
2023-04-21T08:48:24.195Z,7.05
2023-04-21T08:50:52.273Z,6.75
2023-04-21T08:53:19.608Z,6.55
2023-04-21T08:56:03.218Z,7.78
2023-04-21T08:58:37.378Z,6.93
2023-04-21T09:01:04.716Z,7.05
2023-04-21T09:03:31.809Z,6.97
2023-04-21T09:05:59.391Z,6.47
2023-04-21T09:08:28.496Z,7.38
2023-04-21T09:10:56.488Z,7.15
2023-04-21T09:13:30.969Z,6.88
2023-04-21T09:15:58.721Z,7.07
2023-04-21T09:18:28.071Z,6.88
2023-04-21T09:21:09.579Z,7.35
2023-04-21T09:23:43.630Z,7.32
2023-04-21T09:26:11.333Z,6.90
2023-04-21T09:28:41.934Z,7.13
2023-04-21T09:31:16.532Z,6.70
2023-04-21T09:34:00.245Z,6.97
2023-04-21T09:36:31.150Z,6.45
2023-04-21T09:41:32.569Z,6.47
2023-04-21T09:44:04.551Z,7.55
2023-04-21T09:46:35.248Z,7.57
2023-04-21T09:49:03.598Z,7.10
2023-04-21T09:52:02.220Z,7.32
2023-04-21T09:54:29.727Z,6.78
2023-04-21T09:57:02.170Z,7.18
2023-04-21T09:59:40.691Z,6.28
2023-04-21T10:02:09.705Z,7.35
2023-04-21T10:04:38.396Z,7.82
2023-04-21T10:07:06.527Z,8.23
2023-04-21T10:09:45.405Z,8.65
2023-04-21T10:12:14.018Z,7.75
2023-04-21T10:14:40.930Z,7.47
2023-04-21T10:17:10.118Z,7.80
2023-04-21T10:19:40.776Z,8.45
2023-04-21T10:22:09.694Z,8.77
2023-04-21T10:24:41.104Z,8.38
2023-04-21T10:27:12.180Z,8.48
2023-04-21T10:29:52.409Z,7.95
2023-04-21T10:32:42.800Z,7.65
2023-04-21T10:35:11.650Z,7.72
2023-04-21T10:37:40.384Z,9.20
2023-04-21T10:40:11.005Z,8.27
2023-04-21T10:42:37.916Z,8.98
2023-04-21T10:45:09.963Z,8.93
2023-04-21T10:47:42.658Z,7.88
2023-04-21T10:50:14.230Z,7.78
2023-04-21T10:52:53.492Z,8.90
2023-04-21T10:55:22.008Z,8.88
2023-04-21T10:57:49.232Z,7.82
2023-04-21T11:00:18.756Z,8.23
2023-04-21T11:02:57.469Z,9.02
2023-04-21T11:05:38.881Z,7.55
2023-04-21T11:08:11.508Z,8.82
2023-04-21T11:10:55.962Z,8.80
2023-04-21T11:13:24.949Z,8.18
2023-04-21T11:15:59.309Z,7.78
2023-04-21T11:18:34.276Z,7.55
2023-04-21T11:21:18.754Z,7.85
2023-04-21T11:23:53.367Z,7.50
2023-04-21T11:26:38.413Z,7.03
2023-04-21T11:29:07.398Z,7.22
2023-04-21T11:31:36.454Z,7.65
2023-04-21T11:34:05.426Z,7.65
2023-04-21T11:36:39.622Z,7.00
2023-04-21T11:39:11.188Z,7.80
2023-04-21T11:41:45.663Z,7.35
2023-04-21T11:44:13.920Z,7.18
2023-04-21T11:46:47.801Z,8.40
2023-04-21T11:49:17.249Z,7.47
2023-04-21T11:51:44.654Z,6.80
2023-04-21T11:54:13.349Z,7.28
2023-04-21T11:56:47.892Z,7.55
2023-04-21T11:59:16.931Z,6.82
2023-04-21T12:01:48.358Z,6.75
2023-04-21T12:04:23.751Z,6.88
2023-04-21T12:07:03.363Z,7.78
2023-04-21T12:09:30.817Z,7.10
2023-04-21T12:11:58.925Z,7.32
2023-04-21T12:14:27.004Z,7.93
2023-04-21T12:16:55.947Z,6.82
2023-04-21T12:19:24.033Z,7.40
2023-04-21T12:21:56.211Z,7.30
2023-04-21T12:24:23.103Z,7.00
2023-04-21T12:26:49.938Z,7.22
2023-04-21T12:29:16.722Z,7.65
2023-04-21T12:31:43.664Z,7.47
2023-04-21T12:34:10.556Z,7.07
2023-04-21T12:36:38.645Z,8.23
2023-04-21T12:39:06.386Z,7.07
2023-04-21T12:41:34.696Z,6.47
2023-04-21T12:44:01.950Z,6.00
2023-04-21T12:46:28.976Z,7.13
2023-04-21T12:48:56.158Z,6.20
2023-04-21T12:51:23.029Z,6.30
2023-04-21T12:53:50.244Z,6.68
2023-04-21T12:56:17.040Z,5.72
2023-04-21T12:58:43.921Z,6.25
2023-04-21T13:01:12.257Z,6.15
2023-04-21T13:03:39.675Z,6.47
2023-04-21T13:06:07.050Z,5.72
2023-04-21T13:08:33.927Z,5.63
2023-04-21T13:11:01.156Z,5.07
2023-04-21T13:13:27.953Z,5.65
2023-04-21T13:15:54.821Z,5.10
2023-04-21T13:18:21.663Z,5.35
2023-04-21T13:20:48.514Z,5.03
2023-04-21T13:23:16.114Z,4.70
2023-04-21T13:25:44.853Z,4.72
2023-04-21T13:28:13.886Z,4.63
2023-04-21T13:30:40.753Z,5.50
2023-04-21T13:33:07.953Z,5.60
2023-04-21T13:35:34.963Z,6.15
2023-04-21T13:38:01.862Z,5.90
2023-04-21T13:40:28.889Z,5.10
2023-04-21T13:42:55.755Z,5.30
2023-04-21T13:45:22.675Z,5.13
2023-04-21T13:47:49.657Z,5.10
2023-04-21T13:50:16.607Z,4.88
2023-04-21T13:52:43.677Z,4.90
2023-04-21T13:55:11.365Z,4.32
2023-04-21T13:57:38.671Z,4.45
2023-04-21T14:00:06.669Z,3.95
2023-04-21T14:02:33.678Z,3.88
2023-04-21T14:05:01.185Z,3.70
2023-04-21T14:07:28.421Z,3.67
2023-04-21T14:09:55.300Z,4.25
2023-04-21T14:12:22.098Z,3.75
2023-04-21T14:14:49.188Z,3.65
2023-04-21T14:17:17.092Z,3.45
2023-04-21T14:19:44.070Z,3.08
2023-04-21T14:22:11.042Z,3.50
2023-04-21T14:24:37.949Z,2.83
2023-04-21T14:27:05.199Z,2.97
2023-04-21T14:29:32.488Z,2.92
2023-04-21T14:31:59.762Z,2.53
2023-04-21T14:34:26.830Z,2.60
2023-04-21T14:36:53.934Z,2.80
2023-04-21T14:39:20.939Z,3.13
2023-04-21T14:41:47.849Z,3.78
2023-04-21T14:44:14.759Z,2.60
2023-04-21T14:46:43.477Z,2.85
2023-04-21T14:49:13.319Z,3.00
2023-04-21T14:51:42.037Z,2.95
2023-04-21T14:54:09.276Z,2.13
2023-04-21T14:56:36.359Z,2.67
2023-04-21T14:59:03.352Z,2.33
2023-04-21T15:01:30.836Z,2.40
2023-04-21T15:03:59.830Z,2.13
2023-04-21T15:06:30.176Z,2.17
2023-04-21T15:08:57.386Z,2.58
2023-04-21T15:11:24.292Z,2.78
2023-04-21T15:13:51.482Z,1.98
2023-04-21T15:16:18.388Z,1.98
2023-04-21T15:18:45.427Z,2.15
2023-04-21T15:21:12.328Z,2.45
2023-04-21T15:23:39.131Z,2.33
2023-04-21T15:26:05.998Z,2.50
2023-04-21T15:28:33.286Z,2.47
2023-04-21T15:31:00.240Z,2.53
2023-04-21T15:33:27.146Z,2.42
2023-04-21T15:35:54.016Z,2.10
2023-04-21T15:38:21.276Z,2.88
2023-04-21T15:41:00.204Z,1.95
2023-04-21T15:43:29.261Z,2.30
2023-04-21T15:45:56.174Z,1.80
2023-04-21T15:48:23.274Z,2.15
2023-04-21T15:50:50.254Z,2.10
2023-04-21T15:53:19.861Z,2.38
2023-04-21T15:55:46.991Z,1.95
2023-04-21T15:58:13.879Z,1.77
2023-04-21T16:00:44.324Z,2.05
2023-04-21T16:03:11.865Z,2.33
2023-04-21T16:05:39.209Z,2.45
2023-04-21T16:08:06.224Z,2.03
2023-04-21T16:10:33.068Z,2.10
2023-04-21T16:13:00.004Z,2.45
2023-04-21T16:15:27.121Z,1.75
2023-04-21T16:17:54.300Z,2.00
2023-04-21T16:20:21.288Z,2.13
2023-04-21T16:22:51.457Z,1.95
2023-04-21T16:25:19.556Z,2.28
2023-04-21T16:27:47.978Z,2.33
2023-04-21T16:30:14.921Z,2.45
2023-04-21T16:32:41.794Z,1.95
2023-04-21T16:35:09.200Z,2.20
2023-04-21T16:37:38.234Z,2.40
2023-04-21T16:40:06.313Z,2.15
2023-04-21T16:42:33.785Z,1.90
2023-04-21T16:45:03.493Z,2.17
2023-04-21T16:47:31.194Z,2.22
2023-04-21T16:49:58.201Z,2.15
2023-04-21T16:52:25.819Z,2.22
2023-04-21T16:54:52.781Z,1.98
2023-04-21T16:57:19.836Z,1.75
2023-04-21T16:59:46.698Z,2.03
2023-04-21T17:02:13.607Z,1.80
2023-04-21T17:04:40.758Z,1.92
2023-04-21T17:07:07.766Z,1.77
2023-04-21T17:09:34.596Z,2.13
2023-04-21T17:12:02.691Z,1.50
2023-04-21T17:14:30.024Z,2.15
2023-04-21T17:16:57.489Z,1.98
2023-04-21T17:19:24.996Z,2.08
2023-04-21T17:21:51.913Z,1.60
2023-04-21T17:24:18.753Z,1.85
2023-04-21T17:26:45.723Z,0.80
2023-04-21T17:29:12.867Z,0.80
2023-04-21T17:31:39.781Z,0.68
2023-04-21T17:34:06.655Z,0.50
2023-04-21T17:36:33.555Z,0.60
2023-04-21T17:39:00.973Z,0.57
2023-04-21T17:41:28.101Z,0.65
2023-04-21T17:43:54.941Z,0.52
2023-04-21T17:46:24.943Z,0.47
2023-04-21T17:48:52.284Z,0.70
2023-04-21T17:51:19.557Z,0.47
2023-04-21T17:53:46.847Z,0.80
2023-04-21T17:56:14.551Z,0.45
2023-04-21T17:58:42.427Z,0.90
2023-04-21T18:01:09.336Z,0.50
2023-04-21T18:03:37.353Z,0.93
2023-04-21T18:06:04.890Z,0.40
2023-04-21T18:08:32.239Z,0.60
2023-04-21T18:10:59.077Z,0.50
2023-04-21T18:13:25.932Z,0.60
2023-04-21T18:15:52.856Z,0.60
2023-04-21T18:18:19.746Z,0.60
2023-04-21T18:20:46.647Z,0.60
2023-04-21T18:23:13.460Z,0.50
2023-04-21T18:25:42.564Z,0.68
2023-04-21T18:28:11.488Z,0.60
2023-04-21T18:30:42.226Z,0.75
2023-04-21T18:33:12.188Z,0.93
2023-04-21T18:35:41.132Z,0.70
2023-04-21T18:38:08.581Z,0.80
2023-04-21T18:40:37.416Z,0.70
2023-04-21T18:43:05.324Z,0.70
2023-04-21T18:45:32.562Z,0.77
2023-04-21T18:47:59.456Z,0.60
2023-04-21T18:50:29.273Z,0.75
2023-04-21T18:52:56.416Z,0.60
2023-04-21T18:55:23.261Z,0.80
2023-04-21T18:57:50.188Z,0.60
2023-04-21T19:00:17.405Z,0.77
2023-04-21T19:02:48.599Z,0.90
2023-04-21T19:05:16.373Z,0.80
2023-04-21T19:07:43.294Z,0.70
2023-04-21T19:10:10.668Z,0.75
2023-04-21T19:12:37.978Z,0.70
2023-04-21T19:15:05.267Z,0.68
2023-04-21T19:17:32.513Z,0.80
2023-04-21T19:19:59.539Z,0.68
2023-04-21T19:22:27.791Z,0.70
2023-04-21T19:24:56.111Z,0.77
2023-04-21T19:27:23.284Z,0.68
2023-04-21T19:29:50.174Z,1.00
2023-04-21T19:32:17.006Z,1.27
2023-04-21T19:34:43.860Z,0.85
2023-04-21T19:37:10.726Z,0.80
2023-04-21T19:39:37.560Z,0.80
2023-04-21T19:42:04.392Z,0.88
2023-04-21T19:44:31.915Z,0.60
2023-04-21T19:46:58.804Z,0.90
2023-04-21T19:49:25.827Z,1.17
2023-04-21T19:51:53.287Z,0.90
2023-04-21T19:54:20.679Z,0.70
2023-04-21T19:56:47.497Z,0.57
2023-04-21T19:59:14.280Z,0.80
2023-04-21T20:01:41.439Z,0.90
2023-04-21T20:04:10.221Z,0.93
2023-04-21T20:06:38.904Z,0.57
2023-04-21T20:09:05.747Z,0.85
2023-04-21T20:11:33.983Z,1.38
2023-04-21T20:14:01.352Z,1.13
2023-04-21T20:16:28.833Z,0.90
2023-04-21T20:18:56.274Z,1.10
2023-04-21T20:21:23.594Z,1.13
2023-04-21T20:23:50.836Z,1.20
2023-04-21T20:26:17.784Z,1.15
2023-04-21T20:28:44.666Z,1.35
2023-04-21T20:31:11.964Z,1.58
2023-04-21T20:33:38.803Z,1.25
2023-04-21T20:36:09.339Z,1.42
2023-04-21T20:38:36.541Z,1.48
2023-04-21T20:41:03.905Z,1.42
2023-04-21T20:43:34.174Z,1.55
2023-04-21T20:46:01.809Z,1.33
2023-04-21T20:48:28.621Z,1.63
2023-04-21T20:50:55.945Z,1.27
2023-04-21T20:53:23.523Z,1.35
2023-04-21T20:55:50.886Z,1.92
2023-04-21T20:58:18.027Z,1.60
2023-04-21T21:00:44.932Z,1.42
2023-04-21T21:03:13.841Z,1.42
2023-04-21T21:05:41.524Z,1.52
2023-04-21T21:08:09.072Z,1.30
2023-04-21T21:10:36.455Z,1.45
2023-04-21T21:13:03.638Z,1.23
2023-04-21T21:15:31.017Z,1.10
2023-04-21T21:17:58.576Z,1.25
2023-04-21T21:20:25.768Z,1.02
2023-04-21T21:22:53.014Z,1.10
2023-04-21T21:25:19.961Z,1.10
2023-04-21T21:27:46.922Z,1.30
2023-04-21T21:30:13.969Z,1.27
2023-04-21T21:32:41.317Z,1.20
2023-04-21T21:35:09.549Z,1.20
2023-04-21T21:37:37.294Z,1.10
2023-04-21T21:40:04.781Z,1.23
2023-04-21T21:42:31.995Z,1.83
2023-04-21T21:44:59.609Z,1.10
2023-04-21T21:47:26.919Z,1.65
2023-04-21T21:49:55.970Z,1.38
2023-04-21T21:52:23.457Z,1.02
2023-04-21T21:54:52.510Z,1.20
2023-04-21T21:57:19.781Z,0.95
2023-04-21T21:59:47.115Z,1.02
2023-04-21T22:02:14.651Z,0.98
2023-04-21T22:04:41.636Z,1.00
2023-04-21T22:07:08.819Z,1.20
2023-04-21T22:09:37.338Z,0.98
2023-04-21T22:12:05.918Z,1.05
2023-04-21T22:14:33.188Z,0.98
2023-04-21T22:17:00.605Z,1.10
2023-04-21T22:19:27.573Z,1.27
2023-04-21T22:21:54.895Z,1.08
2023-04-21T22:24:22.195Z,1.15
2023-04-21T22:26:49.422Z,1.17
2023-04-21T22:29:16.408Z,1.20
2023-04-21T22:31:43.721Z,1.10
2023-04-21T22:34:14.956Z,1.13
2023-04-21T22:36:42.286Z,1.17
2023-04-21T22:39:09.535Z,1.20
2023-04-21T22:41:37.048Z,1.25
2023-04-21T22:44:04.335Z,1.00
2023-04-21T22:46:33.589Z,1.48
2023-04-21T22:49:05.110Z,1.30
2023-04-21T22:51:32.686Z,1.50
2023-04-21T22:54:00.423Z,1.17
2023-04-21T22:56:27.782Z,1.30
2023-04-21T22:58:54.730Z,1.08
2023-04-21T23:01:21.641Z,1.08
2023-04-21T23:03:49.085Z,0.88
2023-04-21T23:06:16.340Z,1.30
2023-04-21T23:08:43.554Z,1.05
2023-04-21T23:11:10.811Z,1.10
2023-04-21T23:13:37.630Z,1.13
2023-04-21T23:16:04.568Z,1.17
2023-04-21T23:18:31.471Z,1.00
2023-04-21T23:20:59.004Z,1.02
2023-04-21T23:23:26.280Z,1.15
2023-04-21T23:25:53.671Z,1.20
2023-04-21T23:28:21.686Z,1.23
2023-04-21T23:30:48.931Z,1.20
2023-04-21T23:33:15.920Z,1.30
2023-04-21T23:35:42.902Z,1.10
2023-04-21T23:38:10.010Z,1.30
2023-04-21T23:40:37.250Z,1.25
2023-04-21T23:43:04.508Z,1.30
2023-04-21T23:45:31.866Z,1.20
2023-04-21T23:47:59.289Z,1.38
2023-04-21T23:50:26.566Z,1.40
2023-04-21T23:52:53.947Z,1.35
2023-04-21T23:55:21.329Z,1.20
2023-04-21T23:57:48.648Z,1.30
